Time;durP1;ratioP1;P1;durP2;ratioP2;P2;SDS_P1;SDS_P2;PMS_P1;PMS_P2;Temp;Humidity;BMP_temperature;BMP_pressure;BME280_temperature;BME280_humidity;BME280_pressure;Samples;Min_cycle;Max_cycle;Signal;HPM_P1;HPM_P2
2021/06/18 00:00:09;;;;;;;7.80;6.05;;;21.10;89.90;;;;;;5055138;28;20270;-45
2021/06/18 00:02:38;;;;;;;7.75;6.90;;;21.00;90.10;;;;;;5055112;28;20247;-45
2021/06/18 00:05:09;;;;;;;8.95;6.28;;;21.00;90.40;;;;;;5055176;28;20420;-44
2021/06/18 00:07:42;;;;;;;9.82;6.82;;;21.00;90.70;;;;;;5055290;28;20298;-47
2021/06/18 00:10:12;;;;;;;7.55;6.30;;;20.90;91.10;;;;;;5054781;28;20319;-48
2021/06/18 00:12:41;;;;;;;6.68;6.07;;;20.80;91.10;;;;;;5055142;28;20235;-44
2021/06/18 00:15:11;;;;;;;7.38;5.82;;;20.80;91.40;;;;;;5054907;28;20214;-44
2021/06/18 00:17:39;;;;;;;7.25;5.55;;;20.70;91.70;;;;;;5054881;28;20237;-44
2021/06/18 00:20:11;;;;;;;9.65;5.50;;;20.60;91.90;;;;;;5054844;28;20643;-45
2021/06/18 00:22:40;;;;;;;11.13;5.00;;;20.60;92.20;;;;;;5054634;28;20777;-46
2021/06/18 00:25:09;;;;;;;6.55;5.25;;;20.50;92.40;;;;;;5054609;28;20212;-44
2021/06/18 00:27:37;;;;;;;8.65;5.10;;;20.50;92.70;;;;;;5054978;28;20296;-46
2021/06/18 00:30:08;;;;;;;6.53;5.15;;;20.40;93.00;;;;;;5054634;28;20319;-45
2021/06/18 00:32:37;;;;;;;6.03;5.53;;;20.40;93.20;;;;;;5054633;28;20208;-48
2021/06/18 00:35:06;;;;;;;9.43;6.45;;;20.40;93.30;;;;;;5054492;28;20234;-43
2021/06/18 00:37:37;;;;;;;9.27;5.78;;;20.40;93.40;;;;;;5054694;28;20209;-48
2021/06/18 00:40:07;;;;;;;7.45;5.55;;;20.40;93.60;;;;;;5054499;28;20640;-49
2021/06/18 00:42:35;;;;;;;5.65;5.15;;;20.40;93.80;;;;;;5054476;28;20248;-47
2021/06/18 00:45:03;;;;;;;6.63;5.82;;;20.40;93.90;;;;;;5054242;28;20575;-45
2021/06/18 00:47:32;;;;;;;8.10;5.97;;;20.30;94.10;;;;;;5054180;28;20295;-44
2021/06/18 00:50:00;;;;;;;6.45;5.72;;;20.30;94.40;;;;;;5054562;28;20318;-48
2021/06/18 00:52:29;;;;;;;8.18;5.43;;;20.30;94.50;;;;;;5054358;28;20243;-44
2021/06/18 00:54:58;;;;;;;6.03;5.50;;;20.30;94.60;;;;;;5054293;28;20212;-45
2021/06/18 00:57:27;;;;;;;6.75;5.93;;;20.30;94.80;;;;;;5054143;28;20320;-46
2021/06/18 00:59:55;;;;;;;6.22;5.63;;;20.20;94.90;;;;;;5053827;28;20716;-47
2021/06/18 01:02:23;;;;;;;9.85;5.75;;;20.20;95.10;;;;;;5054029;28;20633;-47
2021/06/18 01:04:51;;;;;;;6.93;5.90;;;20.20;95.30;;;;;;5054002;28;20211;-49
2021/06/18 01:07:24;;;;;;;8.75;7.07;;;20.10;95.40;;;;;;5054019;28;20204;-45
2021/06/18 01:10:11;;;;;;;9.32;6.10;;;20.10;95.60;;;;;;5053853;28;20224;-50
2021/06/18 01:12:46;;;;;;;9.93;6.55;;;20.00;96.00;;;;;;5053887;28;20226;-46
2021/06/18 01:15:18;;;;;;;7.05;6.43;;;19.90;96.10;;;;;;5053667;28;20204;-44
2021/06/18 01:17:55;;;;;;;8.70;6.07;;;19.90;96.30;;;;;;5054041;28;20583;-49
2021/06/18 01:20:34;;;;;;;8.88;6.68;;;19.80;96.50;;;;;;5053842;28;20291;-48
2021/06/18 01:23:05;;;;;;;8.82;6.20;;;19.80;96.70;;;;;;5053699;28;20685;-43
2021/06/18 01:25:44;;;;;;;8.23;5.82;;;19.80;96.90;;;;;;5053945;28;20299;-47
2021/06/18 01:28:32;;;;;;;6.07;5.45;;;19.80;97.10;;;;;;5053766;28;20232;-49
2021/06/18 01:31:00;;;;;;;11.27;6.22;;;19.70;97.20;;;;;;5053588;28;20598;-43
2021/06/18 01:33:30;;;;;;;12.13;6.35;;;19.80;99.90;;;;;;5053426;28;20214;-47
2021/06/18 01:36:02;;;;;;;6.95;5.68;;;19.70;99.90;;;;;;5053607;28;20208;-43
2021/06/18 01:38:34;;;;;;;6.75;5.72;;;19.70;97.60;;;;;;5053333;28;20299;-45
2021/06/18 01:41:05;;;;;;;6.75;6.15;;;19.70;97.70;;;;;;5053328;28;20227;-48
2021/06/18 01:43:36;;;;;;;7.35;5.63;;;19.70;97.80;;;;;;5052993;28;20684;-47
2021/06/18 01:46:05;;;;;;;7.38;5.88;;;19.70;97.90;;;;;;5053271;28;20664;-45
2021/06/18 01:48:35;;;;;;;6.28;5.68;;;19.70;98.00;;;;;;5053033;28;20250;-48
2021/06/18 01:51:03;;;;;;;5.93;5.25;;;19.60;98.10;;;;;;5052735;28;20299;-48
2021/06/18 01:53:32;;;;;;;6.35;5.75;;;19.70;98.10;;;;;;5053054;28;20291;-45
2021/06/18 01:56:02;;;;;;;6.28;5.68;;;19.60;98.20;;;;;;5052864;28;20302;-45
2021/06/18 01:58:32;;;;;;;6.78;5.90;;;19.50;98.30;;;;;;5052664;28;20215;-48
2021/06/18 02:01:03;;;;;;;6.63;6.05;;;19.50;98.30;;;;;;5052739;28;20735;-47
2021/06/18 02:03:32;;;;;;;5.55;5.05;;;19.50;98.40;;;;;;5052677;28;20259;-44
2021/06/18 02:06:05;;;;;;;6.93;5.05;;;19.50;98.60;;;;;;5052688;28;20236;-46
2021/06/18 02:08:33;;;;;;;6.70;6.10;;;19.40;98.70;;;;;;5052184;28;20311;-48
2021/06/18 02:11:03;;;;;;;5.95;5.35;;;19.40;98.80;;;;;;5052266;28;20769;-46
2021/06/18 02:13:33;;;;;;;5.90;5.35;;;19.40;98.90;;;;;;5052704;28;20299;-45
2021/06/18 02:16:03;;;;;;;9.93;6.72;;;19.30;99.00;;;;;;5052336;28;20304;-48
2021/06/18 02:18:32;;;;;;;7.68;6.50;;;19.40;99.20;;;;;;5052303;28;20229;-44
2021/06/18 02:21:02;;;;;;;6.72;6.10;;;19.40;99.20;;;;;;5052318;28;20240;-44
2021/06/18 02:23:33;;;;;;;7.43;6.05;;;19.30;99.20;;;;;;5052265;28;20306;-46
2021/06/18 02:26:04;;;;;;;6.35;5.78;;;19.30;99.30;;;;;;5052224;28;20698;-44
2021/06/18 02:28:33;;;;;;;7.13;5.18;;;19.30;99.50;;;;;;5052411;28;20219;-44
2021/06/18 02:31:02;;;;;;;5.90;5.40;;;19.20;99.60;;;;;;5052005;28;20695;-44
2021/06/18 02:33:31;;;;;;;7.78;7.00;;;19.20;99.80;;;;;;5052030;28;20311;-46
2021/06/18 02:35:59;;;;;;;7.30;6.60;;;19.10;99.90;;;;;;5051686;28;20218;-44
2021/06/18 02:38:27;;;;;;;6.97;6.38;;;;;;;;;;5052208;28;20214;-45
2021/06/18 02:40:55;;;;;;;7.07;6.47;;;19.10;99.90;;;;;;5052307;28;20204;-44
2021/06/18 02:43:23;;;;;;;10.35;5.95;;;19.00;99.90;;;;;;5052194;28;20693;-44
2021/06/18 02:45:51;;;;;;;7.32;6.47;;;19.00;99.90;;;;;;5052075;28;20211;-47
2021/06/18 02:48:25;;;;;;;11.60;7.25;;;18.90;99.90;;;;;;5052016;28;20212;-44
2021/06/18 02:50:58;;;;;;;12.88;7.15;;;18.90;99.90;;;;;;5052266;28;20617;-44
2021/06/18 02:53:30;;;;;;;8.15;6.05;;;18.80;99.90;;;;;;5052080;28;20654;-47
2021/06/18 02:56:00;;;;;;;8.32;6.43;;;18.70;99.90;;;;;;5052111;28;20298;-45
2021/06/18 02:58:34;;;;;;;7.95;6.63;;;18.70;99.90;;;;;;5051992;28;20236;-46
2021/06/18 03:01:04;;;;;;;8.15;6.72;;;18.60;99.90;;;;;;5051767;28;20238;-45
2021/06/18 03:03:39;;;;;;;7.28;6.57;;;18.60;99.90;;;;;;5051873;28;20688;-45
2021/06/18 03:06:08;;;;;;;9.02;7.38;;;18.60;99.90;;;;;;5052038;28;20595;-44
2021/06/18 03:08:40;;;;;;;7.13;6.53;;;18.60;99.90;;;;;;5051943;28;20214;-45
2021/06/18 03:11:10;;;;;;;9.25;7.45;;;18.60;99.90;;;;;;5051738;28;21018;-44
2021/06/18 03:13:42;;;;;;;10.05;7.65;;;18.60;99.90;;;;;;5051853;28;20573;-44
2021/06/18 03:16:13;;;;;;;8.50;7.10;;;18.60;99.90;;;;;;5051915;28;20208;-47
2021/06/18 03:18:46;;;;;;;11.50;7.00;;;18.50;99.90;;;;;;5051369;28;20299;-47
2021/06/18 03:21:14;;;;;;;8.27;7.15;;;18.50;99.90;;;;;;5051408;28;20232;-46
2021/06/18 03:23:46;;;;;;;10.82;6.80;;;18.50;99.90;;;;;;5052133;28;20262;-48
2021/06/18 03:26:14;;;;;;;8.85;7.20;;;18.50;99.90;;;;;;5051505;28;20677;-45
2021/06/18 03:28:42;;;;;;;8.02;7.32;;;18.50;99.90;;;;;;5051764;28;20238;-42
2021/06/18 03:31:11;;;;;;;7.03;6.43;;;18.40;99.90;;;;;;5051562;28;20228;-47
2021/06/18 03:33:41;;;;;;;10.02;6.93;;;;;;;;;;5051608;28;20525;-43
2021/06/18 03:36:11;;;;;;;6.93;6.22;;;18.40;99.90;;;;;;5051407;28;20214;-46
2021/06/18 03:38:39;;;;;;;9.70;6.63;;;18.30;99.90;;;;;;5051551;28;20240;-47
2021/06/18 03:41:08;;;;;;;12.15;6.82;;;18.30;99.90;;;;;;5051811;28;20228;-44
2021/06/18 03:43:36;;;;;;;10.15;7.10;;;18.30;99.90;;;;;;5051677;28;20204;-46
2021/06/18 03:46:08;;;;;;;8.05;7.22;;;18.30;99.90;;;;;;5051484;28;21027;-44
2021/06/18 03:48:37;;;;;;;11.98;8.10;;;18.30;99.90;;;;;;5051433;28;20207;-49
2021/06/18 03:51:06;;;;;;;8.27;7.40;;;18.40;99.90;;;;;;5051172;28;20236;-46
2021/06/18 03:53:37;;;;;;;10.30;9.18;;;18.40;99.90;;;;;;5051568;28;20232;-44
2021/06/18 03:56:06;;;;;;;107.13;78.25;;;18.50;99.90;;;;;;5051293;28;20212;-46
2021/06/18 03:58:36;;;;;;;11.30;10.00;;;18.50;99.90;;;;;;5051182;28;20208;-43
2021/06/18 04:01:06;;;;;;;10.73;9.38;;;18.50;99.90;;;;;;5051232;28;20208;-44
2021/06/18 04:03:35;;;;;;;10.88;9.82;;;18.60;99.90;;;;;;5051015;28;20232;-44
2021/06/18 04:06:06;;;;;;;11.15;9.02;;;18.60;99.90;;;;;;5051084;28;20330;-50
2021/06/18 04:08:37;;;;;;;11.75;8.57;;;18.70;99.90;;;;;;5050988;28;20577;-44
2021/06/18 04:11:07;;;;;;;8.48;7.65;;;18.80;99.90;;;;;;5050959;28;20228;-45
2021/06/18 04:13:37;;;;;;;12.13;10.90;;;18.80;99.90;;;;;;5050950;28;20249;-47
2021/06/18 04:16:07;;;;;;;7.18;6.57;;;18.80;99.90;;;;;;5051121;28;20343;-47
2021/06/18 04:18:37;;;;;;;8.50;7.05;;;18.90;99.90;;;;;;5051465;28;20211;-44
2021/06/18 04:21:08;;;;;;;10.57;7.97;;;18.90;99.90;;;;;;5050864;28;20315;-45
2021/06/18 04:23:37;;;;;;;11.13;7.88;;;19.00;99.90;;;;;;5051479;28;20318;-44
2021/06/18 04:26:05;;;;;;;11.55;9.60;;;19.00;99.90;;;;;;5051031;28;20204;-43
2021/06/18 04:28:35;;;;;;;13.55;12.23;;;19.10;99.90;;;;;;5051196;28;20204;-44
2021/06/18 04:31:04;;;;;;;12.88;11.32;;;19.10;99.90;;;;;;5052544;28;20770;-46
2021/06/18 04:33:32;;;;;;;18.83;8.15;;;19.30;99.90;;;;;;5054979;28;20343;-46
2021/06/18 04:36:00;;;;;;;11.05;7.93;;;19.30;99.90;;;;;;5054936;28;20215;-49
2021/06/18 04:38:28;;;;;;;9.90;8.23;;;19.50;99.90;;;;;;5054672;28;20239;-44
2021/06/18 04:40:57;;;;;;;11.77;8.45;;;19.60;99.90;;;;;;5054403;28;20210;-46
2021/06/18 04:43:25;;;;;;;19.05;9.70;;;19.70;99.90;;;;;;5054840;28;20215;-48
2021/06/18 04:45:53;;;;;;;10.75;7.78;;;19.80;99.90;;;;;;5054409;28;20300;-45
2021/06/18 04:48:22;;;;;;;22.88;10.00;;;19.90;99.90;;;;;;5054245;28;20299;-44
2021/06/18 04:50:50;;;;;;;14.77;8.50;;;20.00;99.90;;;;;;5054431;28;20373;-43
2021/06/18 04:53:18;;;;;;;10.52;8.05;;;20.10;99.90;;;;;;5054292;28;20208;-44
2021/06/18 04:55:49;;;;;;;9.13;8.32;;;20.20;99.90;;;;;;5054424;28;20630;-48
2021/06/18 04:58:18;;;;;;;9.63;8.27;;;20.40;99.90;;;;;;5054229;28;20298;-49
2021/06/18 05:00:46;;;;;;;10.27;9.27;;;20.50;99.90;;;;;;5054161;28;20306;-47
2021/06/18 05:03:14;;;;;;;24.92;10.77;;;20.60;99.90;;;;;;5054092;28;20299;-45
2021/06/18 05:05:42;;;;;;;14.43;9.27;;;20.60;99.80;;;;;;5054108;28;20316;-44
2021/06/18 05:08:10;;;;;;;11.40;9.23;;;20.80;99.70;;;;;;5054072;28;20291;-45
2021/06/18 05:10:39;;;;;;;9.90;8.75;;;20.90;99.60;;;;;;5053921;28;20611;-46
2021/06/18 05:13:06;;;;;;;16.00;8.40;;;21.00;99.40;;;;;;5054040;28;20200;-47
2021/06/18 05:15:36;;;;;;;13.70;10.02;;;21.10;99.20;;;;;;5054014;28;20235;-44
2021/06/18 05:18:04;;;;;;;11.05;10.02;;;21.20;99.00;;;;;;5053942;28;20675;-46
2021/06/18 05:20:32;;;;;;;11.15;10.20;;;21.30;98.90;;;;;;5053602;28;20299;-47
2021/06/18 05:23:00;;;;;;;13.18;11.98;;;21.40;98.70;;;;;;5053587;28;20200;-49
2021/06/18 05:25:29;;;;;;;10.90;9.90;;;21.50;98.60;;;;;;5053866;28;20261;-45
2021/06/18 05:27:57;;;;;;;15.68;11.45;;;21.50;98.40;;;;;;5053645;28;20575;-44
2021/06/18 05:30:25;;;;;;;14.15;12.45;;;21.50;98.50;;;;;;5053737;28;20307;-45
2021/06/18 05:32:56;;;;;;;16.73;15.15;;;21.50;98.50;;;;;;5053613;28;20640;-48
2021/06/18 05:35:23;;;;;;;14.55;12.32;;;21.60;98.40;;;;;;5053830;28;20335;-50
2021/06/18 05:37:52;;;;;;;13.85;12.43;;;21.70;98.30;;;;;;5053353;28;20250;-47
2021/06/18 05:40:20;;;;;;;13.38;12.00;;;21.80;98.20;;;;;;5053680;28;20208;-44
2021/06/18 05:42:48;;;;;;;19.17;11.98;;;21.90;98.00;;;;;;5052656;28;20200;-44
2021/06/18 05:45:16;;;;;;;21.05;11.95;;;21.90;98.00;;;;;;5053411;28;20208;-43
2021/06/18 05:47:44;;;;;;;19.10;13.82;;;21.90;98.00;;;;;;5053239;28;20300;-46
2021/06/18 05:50:14;;;;;;;18.45;13.25;;;22.00;97.80;;;;;;5053446;28;20220;-44
2021/06/18 05:52:43;;;;;;;12.55;11.32;;;22.00;97.50;;;;;;5053212;28;20277;-44
2021/06/18 05:55:11;;;;;;;11.32;10.32;;;22.00;97.40;;;;;;5053008;28;20299;-44
2021/06/18 05:57:39;;;;;;;14.77;11.13;;;22.00;97.20;;;;;;5052980;28;20519;-45
2021/06/18 06:00:08;;;;;;;10.57;9.48;;;22.10;97.00;;;;;;5052919;28;20212;-46
2021/06/18 06:02:37;;;;;;;12.32;10.75;;;22.30;96.70;;;;;;5053167;28;20204;-49
2021/06/18 06:05:06;;;;;;;11.80;9.75;;;22.30;96.40;;;;;;5052764;28;20212;-44
2021/06/18 06:07:36;;;;;;;14.32;10.10;;;22.40;96.20;;;;;;5053105;28;20240;-46
2021/06/18 06:10:04;;;;;;;10.95;8.90;;;22.50;96.00;;;;;;5052886;28;20303;-48
2021/06/18 06:12:33;;;;;;;10.15;9.15;;;22.60;95.60;;;;;;5052505;28;20231;-47
2021/06/18 06:15:01;;;;;;;10.95;9.82;;;22.60;95.50;;;;;;5052709;28;20231;-47
2021/06/18 06:17:29;;;;;;;12.88;9.55;;;22.60;95.30;;;;;;5052753;28;20212;-48
2021/06/18 06:19:57;;;;;;;14.02;9.77;;;22.60;95.10;;;;;;5052277;28;20261;-47
2021/06/18 06:22:25;;;;;;;10.93;9.77;;;22.70;94.90;;;;;;5052155;28;20242;-45
2021/06/18 06:24:54;;;;;;;13.75;10.40;;;22.80;95.00;;;;;;5052388;28;20291;-44
2021/06/18 06:27:22;;;;;;;11.00;9.70;;;22.90;94.40;;;;;;5052347;28;20223;-48
2021/06/18 06:29:50;;;;;;;10.38;9.35;;;23.00;94.30;;;;;;5052510;28;20298;-44
2021/06/18 06:32:18;;;;;;;16.83;10.23;;;23.10;94.10;;;;;;5052213;28;20673;-47
2021/06/18 06:34:46;;;;;;;13.02;10.57;;;23.20;93.90;;;;;;5052101;28;20307;-44
2021/06/18 06:37:14;;;;;;;13.18;9.70;;;23.40;93.70;;;;;;5052182;28;20291;-44
2021/06/18 06:39:42;;;;;;;10.98;10.07;;;23.60;93.30;;;;;;5052249;28;20312;-46
2021/06/18 06:42:11;;;;;;;12.30;10.82;;;23.70;93.40;;;;;;5052352;28;20204;-48
2021/06/18 06:44:39;;;;;;;12.63;10.00;;;23.90;93.10;;;;;;5052472;28;20391;-45
2021/06/18 06:47:07;;;;;;;11.35;9.20;;;24.00;92.90;;;;;;5051982;28;20683;-47
2021/06/18 06:49:35;;;;;;;11.13;9.80;;;24.00;92.80;;;;;;5052055;28;20299;-46
2021/06/18 06:52:04;;;;;;;15.93;10.35;;;24.00;92.80;;;;;;5051895;28;20586;-44
2021/06/18 06:54:32;;;;;;;12.90;10.40;;;24.00;92.80;;;;;;5052161;28;20303;-44
2021/06/18 06:57:00;;;;;;;14.90;11.40;;;24.10;92.70;;;;;;5051844;28;20231;-45
2021/06/18 06:59:29;;;;;;;10.75;9.73;;;24.20;92.40;;;;;;5052093;28;20604;-43
2021/06/18 07:01:57;;;;;;;12.75;11.45;;;24.40;92.10;;;;;;5052041;28;20212;-47
2021/06/18 07:04:25;;;;;;;11.93;10.52;;;24.50;91.90;;;;;;5051894;28;20204;-44
2021/06/18 07:06:53;;;;;;;17.42;12.27;;;24.60;91.50;;;;;;5052187;28;20243;-46
2021/06/18 07:09:22;;;;;;;13.68;10.27;;;24.70;91.20;;;;;;5051904;28;20621;-47
2021/06/18 07:11:50;;;;;;;16.45;11.57;;;24.90;90.90;;;;;;5051868;28;20299;-45
2021/06/18 07:14:18;;;;;;;13.43;11.10;;;25.10;90.70;;;;;;5051903;28;20298;-45
2021/06/18 07:16:47;;;;;;;13.75;11.65;;;25.20;90.50;;;;;;5051901;28;20212;-46
2021/06/18 07:19:15;;;;;;;13.85;11.77;;;25.30;90.40;;;;;;5051494;28;20208;-51
2021/06/18 07:21:43;;;;;;;11.45;9.50;;;25.40;90.20;;;;;;5051517;28;20415;-45
2021/06/18 07:24:11;;;;;;;12.77;9.30;;;25.40;89.90;;;;;;5051619;28;20290;-45
2021/06/18 07:26:39;;;;;;;10.52;9.13;;;25.50;89.30;;;;;;5051645;28;20302;-46
2021/06/18 07:29:07;;;;;;;9.70;7.75;;;25.50;88.80;;;;;;5051298;28;20255;-50
